createdAt,value
2018-09-26T00:01:01.250Z,9.80
2018-09-26T00:06:05.273Z,9.80
2018-09-26T00:11:09.288Z,9.70
2018-09-26T00:16:13.348Z,9.70
2018-09-26T00:21:17.372Z,9.60
2018-09-26T00:26:21.382Z,9.60
2018-09-26T00:31:25.427Z,9.60
2018-09-26T00:36:29.476Z,9.60
2018-09-26T00:41:33.467Z,9.50
2018-09-26T00:46:37.532Z,9.50
2018-09-26T00:51:41.616Z,9.40
2018-09-26T00:56:45.628Z,9.30
2018-09-26T01:01:49.675Z,9.30
2018-09-26T01:06:53.711Z,9.40
2018-09-26T01:11:57.709Z,9.30
2018-09-26T01:17:01.699Z,9.30
2018-09-26T01:22:05.823Z,9.30
2018-09-26T01:27:09.803Z,9.30
2018-09-26T01:32:14.002Z,9.30
2018-09-26T01:37:18.013Z,9.20
2018-09-26T01:42:22.021Z,9.20
2018-09-26T01:47:26.034Z,9.10
2018-09-26T01:52:30.047Z,9.00
2018-09-26T01:57:34.135Z,9.00
2018-09-26T02:02:38.143Z,8.80
2018-09-26T02:07:42.167Z,8.80
2018-09-26T02:12:46.147Z,8.80
2018-09-26T02:17:50.137Z,8.90
2018-09-26T02:22:54.144Z,8.90
2018-09-26T02:27:58.183Z,8.90
2018-09-26T02:33:02.205Z,8.90
2018-09-26T02:38:06.680Z,8.70
2018-09-26T02:43:10.712Z,8.60
2018-09-26T02:48:20.155Z,8.60
2018-09-26T02:53:24.172Z,8.50
2018-09-26T02:58:28.264Z,8.50
2018-09-26T03:03:32.267Z,8.40
2018-09-26T03:08:36.272Z,8.40
2018-09-26T03:13:40.297Z,8.40
2018-09-26T03:18:44.388Z,8.10
2018-09-26T03:23:48.411Z,8.10
2018-09-26T03:28:52.423Z,8.00
2018-09-26T03:33:56.565Z,8.00
2018-09-26T03:39:00.796Z,8.10
2018-09-26T03:44:04.771Z,8.00
2018-09-26T03:49:08.819Z,8.10
2018-09-26T03:54:12.812Z,8.10
2018-09-26T03:59:16.819Z,8.00
2018-09-26T04:04:20.854Z,8.00
2018-09-26T04:09:24.834Z,7.90
2018-09-26T04:14:28.855Z,8.00
2018-09-26T04:19:32.872Z,7.90
2018-09-26T04:24:37.070Z,8.30
2018-09-26T04:29:41.076Z,8.10
2018-09-26T04:34:45.132Z,8.00
2018-09-26T04:39:49.167Z,8.00
2018-09-26T04:44:53.163Z,11.80
2018-09-26T04:49:57.175Z,7.80
2018-09-26T04:55:01.177Z,7.70
2018-09-26T05:00:05.158Z,7.90
2018-09-26T05:05:09.150Z,8.10
2018-09-26T05:10:13.199Z,8.30
2018-09-26T05:15:17.856Z,8.00
2018-09-26T05:20:21.900Z,7.90
2018-09-26T05:25:25.922Z,7.90
2018-09-26T05:30:30.038Z,7.90
2018-09-26T05:35:34.005Z,8.50
2018-09-26T05:40:38.044Z,8.50
2018-09-26T05:45:42.060Z,8.60
2018-09-26T05:50:46.063Z,8.00
2018-09-26T05:55:50.083Z,7.80
2018-09-26T06:00:54.116Z,9.60
2018-09-26T06:05:58.164Z,7.90
2018-09-26T06:11:02.193Z,8.00
2018-09-26T06:16:06.247Z,8.30
2018-09-26T06:21:10.395Z,8.50
2018-09-26T06:26:14.417Z,8.60
2018-09-26T06:31:18.447Z,9.30
2018-09-26T06:36:22.471Z,9.30
2018-09-26T06:41:26.471Z,9.30
2018-09-26T06:46:30.551Z,9.10
2018-09-26T06:51:34.587Z,9.40
2018-09-26T06:56:38.603Z,9.60
2018-09-26T07:01:42.657Z,10.20
2018-09-26T07:06:46.644Z,10.40
2018-09-26T07:11:50.675Z,10.60
2018-09-26T07:16:54.775Z,10.70
2018-09-26T07:21:58.789Z,11.30
2018-09-26T07:27:02.800Z,11.50
2018-09-26T07:32:06.885Z,11.40
2018-09-26T07:37:10.825Z,11.60
2018-09-26T07:42:14.890Z,11.70
2018-09-26T07:47:18.902Z,12.20
2018-09-26T07:52:22.956Z,12.70
2018-09-26T07:57:26.996Z,12.70
2018-09-26T08:02:31.060Z,13.10
2018-09-26T08:07:35.130Z,13.90
2018-09-26T08:12:39.143Z,14.00
2018-09-26T08:17:43.204Z,14.00
2018-09-26T08:22:47.322Z,14.10
2018-09-26T08:27:51.327Z,14.10
2018-09-26T08:32:55.368Z,14.70
2018-09-26T08:37:59.412Z,15.50
2018-09-26T08:43:03.491Z,15.00
2018-09-26T08:48:08.181Z,15.90
2018-09-26T08:53:12.461Z,14.70
2018-09-26T08:58:16.487Z,15.60
2018-09-26T09:03:21.058Z,15.90
2018-09-26T09:08:25.072Z,16.20
2018-09-26T09:13:29.121Z,16.90
2018-09-26T09:18:33.138Z,18.10
2018-09-26T09:23:37.200Z,18.10
2018-09-26T09:28:41.186Z,16.50
2018-09-26T09:33:45.352Z,16.90
2018-09-26T09:38:49.341Z,17.60
2018-09-26T09:43:53.382Z,18.80
2018-09-26T09:48:57.396Z,19.20
2018-09-26T09:54:01.408Z,18.80
2018-09-26T09:59:05.515Z,19.20
2018-09-26T10:04:09.541Z,19.60
2018-09-26T10:09:13.600Z,20.80
2018-09-26T10:14:17.704Z,21.90
2018-09-26T10:19:21.740Z,19.60
2018-09-26T10:24:25.788Z,20.40
2018-09-26T10:29:29.781Z,22.80
2018-09-26T10:34:33.812Z,21.10
2018-09-26T10:39:37.876Z,22.60
2018-09-26T10:44:41.896Z,23.10
2018-09-26T10:49:45.900Z,21.70
2018-09-26T10:54:49.898Z,24.10
2018-09-26T10:59:53.927Z,23.30
2018-09-26T11:04:57.929Z,25.70
2018-09-26T11:10:01.941Z,25.30
2018-09-26T11:15:06.172Z,26.20
2018-09-26T11:20:10.211Z,26.00
2018-09-26T11:25:14.555Z,25.00
2018-09-26T11:30:18.566Z,26.30
2018-09-26T11:35:22.866Z,25.60
2018-09-26T11:40:26.903Z,25.60
2018-09-26T11:45:30.918Z,25.80
2018-09-26T11:50:34.942Z,25.30
2018-09-26T11:55:38.969Z,25.70
2018-09-26T12:00:42.984Z,26.40
2018-09-26T12:05:47.011Z,27.40
2018-09-26T12:10:51.388Z,28.00
2018-09-26T12:15:55.402Z,25.10
2018-09-26T12:20:59.648Z,26.10
2018-09-26T12:26:03.696Z,25.10
2018-09-26T12:31:08.054Z,24.90
2018-09-26T12:36:12.184Z,27.00
2018-09-26T12:41:16.183Z,27.30
2018-09-26T12:46:20.238Z,26.80
2018-09-26T12:51:24.316Z,27.00
2018-09-26T12:56:28.323Z,26.50
2018-09-26T13:01:32.352Z,26.90
2018-09-26T13:06:36.372Z,27.40
2018-09-26T13:11:40.416Z,28.90
2018-09-26T13:16:44.444Z,29.30
2018-09-26T13:21:48.485Z,28.60
2018-09-26T13:26:52.491Z,28.40
2018-09-26T13:31:56.508Z,28.10
2018-09-26T13:37:00.548Z,27.00
2018-09-26T13:42:04.633Z,27.30
2018-09-26T13:47:08.595Z,25.50
2018-09-26T13:52:12.653Z,25.60
2018-09-26T13:57:16.650Z,25.30
2018-09-26T14:02:21.171Z,26.80
2018-09-26T14:07:25.196Z,24.20
2018-09-26T14:12:29.311Z,25.20
2018-09-26T14:17:33.276Z,25.40
2018-09-26T14:22:38.604Z,26.70
2018-09-26T14:27:43.810Z,23.70
2018-09-26T14:32:47.928Z,24.00
2018-09-26T14:37:52.008Z,22.90
2018-09-26T14:42:56.362Z,23.50
2018-09-26T14:48:00.414Z,23.60
2018-09-26T14:53:04.682Z,23.10
2018-09-26T14:58:09.206Z,22.20
2018-09-26T15:03:13.640Z,22.80
2018-09-26T15:08:18.171Z,23.50
2018-09-26T15:13:22.340Z,23.40
2018-09-26T15:18:26.416Z,23.60
2018-09-26T15:23:30.488Z,23.70
2018-09-26T15:28:34.674Z,24.70
2018-09-26T15:33:38.786Z,24.30
2018-09-26T15:38:42.918Z,24.20
2018-09-26T15:43:48.148Z,23.10
2018-09-26T15:48:52.220Z,24.00
2018-09-26T15:53:56.335Z,24.20
2018-09-26T15:59:00.896Z,21.60
2018-09-26T16:04:21.630Z,20.60
2018-09-26T16:09:25.607Z,20.30
2018-09-26T16:14:29.631Z,19.70
2018-09-26T16:19:33.776Z,19.30
2018-09-26T16:24:37.784Z,19.30
2018-09-26T16:29:41.796Z,19.50
2018-09-26T16:34:45.831Z,19.20
2018-09-26T16:39:49.897Z,19.10
2018-09-26T16:44:53.957Z,18.90
2018-09-26T16:49:57.992Z,18.70
2018-09-26T16:55:02.012Z,18.60
2018-09-26T17:00:06.125Z,18.70
2018-09-26T17:05:10.171Z,18.50
2018-09-26T17:10:14.271Z,18.40
2018-09-26T17:15:18.287Z,18.20
2018-09-26T17:20:22.507Z,18.10
2018-09-26T17:25:26.442Z,17.90
2018-09-26T17:30:30.508Z,18.00
2018-09-26T17:35:34.583Z,17.80
2018-09-26T17:40:38.671Z,17.60
2018-09-26T17:45:42.712Z,17.50
2018-09-26T17:50:46.885Z,17.20
2018-09-26T17:55:51.004Z,17.10
2018-09-26T18:00:55.053Z,16.90
2018-09-26T18:05:59.518Z,16.50
2018-09-26T18:11:03.634Z,16.40
2018-09-26T18:16:07.865Z,16.40
2018-09-26T18:21:12.024Z,16.40
2018-09-26T18:26:16.159Z,16.60
2018-09-26T18:31:20.209Z,16.80
2018-09-26T18:36:24.300Z,16.90
2018-09-26T18:41:28.375Z,16.50
2018-09-26T18:46:32.351Z,16.20
2018-09-26T18:51:36.376Z,15.90
2018-09-26T18:56:41.035Z,15.60
2018-09-26T19:01:45.113Z,15.50
2018-09-26T19:06:49.184Z,15.50
2018-09-26T19:11:53.199Z,15.60
2018-09-26T19:16:57.431Z,15.60
2018-09-26T19:22:01.806Z,15.70
2018-09-26T19:27:06.003Z,15.80
2018-09-26T19:32:10.059Z,15.00
2018-09-26T19:37:14.150Z,14.50
2018-09-26T19:42:18.333Z,15.70
2018-09-26T19:47:22.404Z,15.00
2018-09-26T19:52:26.494Z,13.00
2018-09-26T19:57:30.812Z,15.10
2018-09-26T20:02:34.909Z,16.40
2018-09-26T20:07:38.979Z,14.90
2018-09-26T20:12:43.085Z,12.20
2018-09-26T20:17:47.223Z,14.10
2018-09-26T20:22:51.370Z,13.80
2018-09-26T20:27:55.490Z,13.80
2018-09-26T20:33:00.575Z,13.70
2018-09-26T20:38:05.418Z,13.50
2018-09-26T20:43:09.550Z,13.50
2018-09-26T20:48:13.783Z,13.50
2018-09-26T20:53:17.781Z,13.80
2018-09-26T20:58:21.902Z,13.20
2018-09-26T21:03:26.042Z,13.20
2018-09-26T21:08:30.136Z,13.60
2018-09-26T21:13:34.219Z,13.50
2018-09-26T21:18:38.231Z,13.30
2018-09-26T21:23:42.305Z,13.40
2018-09-26T21:28:46.361Z,13.60
2018-09-26T21:33:52.069Z,13.50
2018-09-26T21:38:56.148Z,13.10
2018-09-26T21:44:00.313Z,13.20
2018-09-26T21:49:04.392Z,12.80
2018-09-26T21:54:08.541Z,12.90
2018-09-26T21:59:12.548Z,12.70
2018-09-26T22:04:16.691Z,12.60
2018-09-26T22:09:20.757Z,11.00
2018-09-26T22:14:24.776Z,12.20
2018-09-26T22:19:28.860Z,12.60
2018-09-26T22:24:32.964Z,16.50
2018-09-26T22:29:36.992Z,9.00
2018-09-26T22:34:41.023Z,13.10
2018-09-26T22:39:45.640Z,13.30
2018-09-26T22:44:49.655Z,13.30
2018-09-26T22:49:54.640Z,13.00
2018-09-26T22:54:58.667Z,12.80
2018-09-26T23:00:02.720Z,12.50
2018-09-26T23:05:06.768Z,12.30
2018-09-26T23:10:10.807Z,12.60
2018-09-26T23:15:14.860Z,12.50
2018-09-26T23:20:18.913Z,12.70
2018-09-26T23:25:22.943Z,12.40
2018-09-26T23:30:27.016Z,12.40
2018-09-26T23:35:31.088Z,12.20
2018-09-26T23:40:35.160Z,12.10
2018-09-26T23:45:39.183Z,12.10
2018-09-26T23:50:43.220Z,12.50
2018-09-26T23:55:47.280Z,12.00
